createdAt,value
2023-03-06T00:01:00.689Z,0.47
2023-03-06T00:03:30.019Z,0.47
2023-03-06T00:06:00.357Z,0.46
2023-03-06T00:08:30.431Z,0.41
2023-03-06T00:10:59.762Z,0.42
2023-03-06T00:13:30.731Z,0.42
2023-03-06T00:16:01.561Z,0.43
2023-03-06T00:18:30.924Z,0.39
2023-03-06T00:21:00.189Z,0.35
2023-03-06T00:23:29.461Z,0.33
2023-03-06T00:25:58.756Z,0.34
2023-03-06T00:28:29.593Z,0.30
2023-03-06T00:30:58.860Z,0.27
2023-03-06T00:33:28.062Z,0.22
2023-03-06T00:35:58.048Z,0.21
2023-03-06T00:38:28.598Z,0.18
2023-03-06T00:40:58.301Z,0.21
2023-03-06T00:43:27.508Z,0.11
2023-03-06T00:45:57.053Z,0.13
2023-03-06T00:48:26.392Z,0.12
2023-03-06T00:50:55.932Z,0.04
2023-03-06T00:53:25.311Z,-0.03
2023-03-06T00:55:55.055Z,-0.03
2023-03-06T00:58:24.291Z,-0.02
2023-03-06T01:00:53.833Z,-0.02
2023-03-06T01:03:24.211Z,-0.05
2023-03-06T01:05:54.334Z,-0.06
2023-03-06T01:08:23.540Z,-0.07
2023-03-06T01:10:52.861Z,-0.03
2023-03-06T01:13:22.104Z,-0.02
2023-03-06T01:15:53.090Z,-0.06
2023-03-06T01:18:24.011Z,-0.09
2023-03-06T01:20:53.496Z,-0.09
2023-03-06T01:23:22.970Z,-0.13
2023-03-06T01:25:52.311Z,-0.13
2023-03-06T01:28:22.173Z,-0.13
2023-03-06T01:30:51.761Z,-0.08
2023-03-06T01:33:21.542Z,-0.08
2023-03-06T01:35:51.501Z,-0.09
2023-03-06T01:38:20.920Z,-0.07
2023-03-06T01:40:50.167Z,-0.04
2023-03-06T01:43:31.320Z,0.02
2023-03-06T01:46:18.922Z,-0.04
2023-03-06T01:48:49.269Z,-0.09
2023-03-06T01:51:18.666Z,-0.07
2023-03-06T01:53:48.726Z,-0.09
2023-03-06T01:56:18.167Z,-0.15
2023-03-06T01:58:49.227Z,-0.14
2023-03-06T02:01:19.428Z,-0.16
2023-03-06T02:03:50.007Z,-0.20
2023-03-06T02:06:22.015Z,-0.21
2023-03-06T02:08:52.276Z,-0.17
2023-03-06T02:11:24.018Z,-0.16
2023-03-06T02:13:55.214Z,-0.19
2023-03-06T02:16:26.987Z,-0.14
2023-03-06T02:18:56.914Z,-0.18
2023-03-06T02:21:35.023Z,-0.20
2023-03-06T02:24:37.910Z,-0.23
2023-03-06T02:27:09.278Z,-0.22
2023-03-06T02:29:39.618Z,-0.16
2023-03-06T02:32:09.079Z,-0.22
2023-03-06T02:34:41.624Z,-0.23
2023-03-06T02:37:12.241Z,-0.24
2023-03-06T02:39:44.913Z,-0.21
2023-03-06T02:42:23.715Z,-0.29
2023-03-06T02:44:55.605Z,-0.36
2023-03-06T02:47:25.241Z,-0.38
2023-03-06T02:49:54.618Z,-0.36
2023-03-06T02:52:23.822Z,-0.43
2023-03-06T02:54:53.111Z,-0.44
2023-03-06T02:57:22.404Z,-0.41
2023-03-06T02:59:51.733Z,-0.33
2023-03-06T03:02:21.019Z,-0.42
2023-03-06T03:04:50.511Z,-0.39
2023-03-06T03:07:20.582Z,-0.46
2023-03-06T03:09:50.079Z,-0.44
2023-03-06T03:12:19.737Z,-0.43
2023-03-06T03:14:50.236Z,-0.51
2023-03-06T03:17:19.744Z,-0.57
2023-03-06T03:19:49.021Z,-0.62
2023-03-06T03:22:19.866Z,-0.70
2023-03-06T03:24:49.505Z,-0.77
2023-03-06T03:27:19.013Z,-0.72
2023-03-06T03:29:48.550Z,-0.73
2023-03-06T03:32:18.537Z,-0.82
2023-03-06T03:34:48.331Z,-0.88
2023-03-06T03:37:19.687Z,-0.80
2023-03-06T03:39:49.131Z,-0.79
2023-03-06T03:42:18.531Z,-0.70
2023-03-06T03:44:47.889Z,-0.60
2023-03-06T03:47:17.899Z,-0.58
2023-03-06T03:49:47.632Z,-0.53
2023-03-06T03:52:17.334Z,-0.42
2023-03-06T03:54:46.730Z,-0.39
2023-03-06T03:57:16.319Z,-0.32
2023-03-06T03:59:47.339Z,-0.26
2023-03-06T04:02:27.155Z,-0.29
2023-03-06T04:05:01.244Z,-0.28
2023-03-06T04:07:30.802Z,-0.26
2023-03-06T04:10:00.159Z,-0.24
2023-03-06T04:12:30.368Z,-0.24
2023-03-06T04:15:00.018Z,-0.16
2023-03-06T04:17:29.734Z,-0.15
2023-03-06T04:19:59.838Z,-0.13
2023-03-06T04:22:29.551Z,-0.12
2023-03-06T04:24:59.062Z,-0.11
2023-03-06T04:27:28.651Z,-0.10
2023-03-06T04:29:58.229Z,-0.08
2023-03-06T04:32:27.773Z,0.02
2023-03-06T04:34:58.230Z,0.01
2023-03-06T04:37:28.810Z,0.05
2023-03-06T04:39:59.045Z,0.10
2023-03-06T04:42:28.284Z,0.09
2023-03-06T04:44:57.660Z,0.13
2023-03-06T04:47:26.897Z,0.21
2023-03-06T04:49:56.500Z,0.17
2023-03-06T04:52:25.738Z,0.22
2023-03-06T04:54:55.273Z,0.21
2023-03-06T04:57:24.800Z,0.26
2023-03-06T04:59:54.187Z,0.29
2023-03-06T05:02:24.802Z,0.30
2023-03-06T05:04:54.080Z,0.31
2023-03-06T05:07:23.340Z,0.38
2023-03-06T05:09:52.662Z,0.35
2023-03-06T05:12:22.090Z,0.37
2023-03-06T05:14:51.512Z,0.41
2023-03-06T05:17:21.243Z,0.44
2023-03-06T05:19:50.499Z,0.45
2023-03-06T05:22:20.051Z,0.50
2023-03-06T05:24:49.362Z,0.52
2023-03-06T05:27:19.162Z,0.55
2023-03-06T05:29:48.394Z,0.57
2023-03-06T05:32:18.626Z,0.57
2023-03-06T05:34:48.482Z,0.63
2023-03-06T05:37:17.790Z,0.61
2023-03-06T05:39:47.196Z,0.66
2023-03-06T05:42:16.480Z,0.63
2023-03-06T05:44:46.351Z,0.72
2023-03-06T05:47:15.919Z,0.69
2023-03-06T05:49:45.385Z,0.67
2023-03-06T05:52:16.629Z,0.71
2023-03-06T05:54:45.864Z,0.71
2023-03-06T05:57:15.108Z,0.70
2023-03-06T05:59:46.311Z,0.73
2023-03-06T06:02:16.206Z,0.71
2023-03-06T06:04:45.692Z,0.71
2023-03-06T06:07:16.575Z,0.76
2023-03-06T06:09:46.332Z,0.75
2023-03-06T06:12:15.918Z,0.76
2023-03-06T06:14:45.373Z,0.74
2023-03-06T06:17:14.785Z,0.76
2023-03-06T06:19:44.296Z,0.73
2023-03-06T06:22:13.658Z,0.74
2023-03-06T06:24:42.961Z,0.78
2023-03-06T06:27:12.227Z,0.78
2023-03-06T06:29:41.481Z,0.80
2023-03-06T06:32:11.026Z,0.84
2023-03-06T06:34:40.513Z,0.82
2023-03-06T06:37:09.922Z,0.85
2023-03-06T06:39:39.539Z,0.86
2023-03-06T06:42:29.901Z,0.88
2023-03-06T06:44:40.551Z,0.88
2023-03-06T06:47:22.351Z,0.86
2023-03-06T06:49:41.061Z,0.90
2023-03-06T06:52:11.691Z,0.89
2023-03-06T06:54:40.922Z,0.90
2023-03-06T06:57:11.627Z,0.93
2023-03-06T06:59:41.287Z,0.97
2023-03-06T07:02:14.023Z,1.03
2023-03-06T07:05:02.022Z,0.99
2023-03-06T07:07:15.486Z,0.97
2023-03-06T07:09:45.020Z,1.02
2023-03-06T07:12:14.475Z,1.02
2023-03-06T07:14:43.759Z,1.08
2023-03-06T07:17:13.377Z,1.09
2023-03-06T07:19:42.616Z,1.18
2023-03-06T07:22:12.077Z,1.22
2023-03-06T07:24:41.672Z,1.25
2023-03-06T07:27:11.003Z,1.27
2023-03-06T07:29:40.365Z,1.28
2023-03-06T07:32:13.949Z,1.28
2023-03-06T07:34:45.134Z,1.34
2023-03-06T07:37:17.720Z,1.40
2023-03-06T07:39:48.206Z,1.42
2023-03-06T07:42:18.050Z,1.40
2023-03-06T07:44:48.994Z,1.43
2023-03-06T07:47:19.079Z,1.46
2023-03-06T07:49:49.638Z,1.48
2023-03-06T07:52:19.311Z,1.49
2023-03-06T07:54:49.472Z,1.56
2023-03-06T07:57:19.855Z,1.62
2023-03-06T07:59:49.363Z,1.66
2023-03-06T08:02:18.829Z,1.80
2023-03-06T08:04:53.420Z,1.76
2023-03-06T08:07:23.209Z,1.84
2023-03-06T08:09:52.701Z,1.97
2023-03-06T08:12:22.310Z,1.96
2023-03-06T08:14:51.528Z,2.13
2023-03-06T08:17:21.077Z,2.12
2023-03-06T08:19:50.313Z,2.33
2023-03-06T08:22:20.013Z,2.53
2023-03-06T08:24:49.212Z,2.54
2023-03-06T08:27:18.486Z,2.53
2023-03-06T08:29:47.684Z,2.59
2023-03-06T08:32:17.148Z,2.78
2023-03-06T08:34:46.599Z,3.00
2023-03-06T08:37:16.036Z,3.04
2023-03-06T08:39:45.669Z,2.88
2023-03-06T08:42:16.080Z,2.63
2023-03-06T08:44:45.460Z,2.85
2023-03-06T08:47:15.008Z,2.95
2023-03-06T08:49:44.309Z,3.15
2023-03-06T08:52:13.674Z,3.27
2023-03-06T08:54:42.907Z,3.19
2023-03-06T08:57:12.629Z,3.36
2023-03-06T08:59:42.222Z,3.09
2023-03-06T09:02:15.043Z,3.06
2023-03-06T09:04:44.349Z,3.08
2023-03-06T09:07:13.793Z,3.26
2023-03-06T09:09:43.325Z,3.53
2023-03-06T09:12:12.785Z,3.66
2023-03-06T09:14:42.120Z,3.83
2023-03-06T09:17:11.636Z,3.72
2023-03-06T09:19:41.264Z,3.66
2023-03-06T09:22:10.507Z,3.90
2023-03-06T09:24:39.913Z,4.09
2023-03-06T09:27:09.657Z,4.19
2023-03-06T09:29:39.088Z,4.23
2023-03-06T09:32:11.150Z,4.77
2023-03-06T09:34:40.063Z,5.02
2023-03-06T09:37:09.323Z,5.18
2023-03-06T09:39:38.686Z,5.76
2023-03-06T09:42:10.859Z,6.16
2023-03-06T09:44:41.388Z,5.66
2023-03-06T09:47:28.861Z,5.41
2023-03-06T09:50:16.076Z,4.82
2023-03-06T09:52:47.650Z,4.51
2023-03-06T09:55:21.996Z,4.50
2023-03-06T09:58:09.212Z,4.40
2023-03-06T10:00:56.922Z,4.23
2023-03-06T10:03:51.540Z,4.06
2023-03-06T10:06:31.809Z,3.75
2023-03-06T10:09:06.594Z,3.44
2023-03-06T10:11:41.590Z,3.23
2023-03-06T10:14:23.005Z,3.08
2023-03-06T10:16:52.343Z,3.28
2023-03-06T10:19:22.645Z,3.32
2023-03-06T10:22:01.285Z,3.16
2023-03-06T10:24:42.593Z,3.15
2023-03-06T10:27:17.256Z,3.20
2023-03-06T10:30:14.068Z,3.40
2023-03-06T10:32:49.759Z,3.54
2023-03-06T10:35:22.072Z,3.42
2023-03-06T10:37:51.321Z,3.63
2023-03-06T10:40:24.776Z,4.02
2023-03-06T10:43:09.517Z,4.53
2023-03-06T10:45:25.029Z,5.34
2023-03-06T10:47:57.415Z,5.49
2023-03-06T10:50:30.616Z,5.45
2023-03-06T10:53:05.646Z,4.69
2023-03-06T10:55:36.717Z,4.17
2023-03-06T10:58:28.908Z,4.28
2023-03-06T11:01:10.164Z,4.19
2023-03-06T11:03:39.746Z,3.98
2023-03-06T11:06:17.287Z,3.89
2023-03-06T11:08:46.717Z,4.13
2023-03-06T11:11:35.041Z,4.68
2023-03-06T11:13:58.225Z,5.04
2023-03-06T11:16:31.284Z,5.44
2023-03-06T11:19:04.049Z,5.81
2023-03-06T11:21:36.124Z,6.48
2023-03-06T11:24:08.592Z,6.15
2023-03-06T11:26:47.244Z,6.41
2023-03-06T11:29:40.504Z,6.71
2023-03-06T11:32:19.548Z,6.88
2023-03-06T11:35:04.875Z,7.56
2023-03-06T11:37:40.419Z,7.88
2023-03-06T11:40:33.553Z,7.87
2023-03-06T11:43:09.127Z,8.27
2023-03-06T11:45:41.869Z,8.70
2023-03-06T11:48:17.660Z,9.73
2023-03-06T11:50:56.136Z,10.37
2023-03-06T11:53:34.168Z,9.83
2023-03-06T11:56:23.153Z,7.68
2023-03-06T11:59:28.865Z,7.24
2023-03-06T12:02:03.908Z,6.90
2023-03-06T12:04:53.317Z,6.28
2023-03-06T12:07:36.392Z,5.88
2023-03-06T12:10:23.894Z,6.15
2023-03-06T12:13:08.305Z,5.39
2023-03-06T12:15:57.776Z,5.32
2023-03-06T12:18:44.253Z,5.23
2023-03-06T12:21:33.853Z,5.16
2023-03-06T12:24:12.320Z,5.20
2023-03-06T12:27:04.844Z,5.09
2023-03-06T12:29:42.775Z,5.29
2023-03-06T12:32:27.517Z,5.42
2023-03-06T12:35:16.854Z,5.45
2023-03-06T12:37:58.567Z,5.32
2023-03-06T12:41:02.948Z,5.44
2023-03-06T12:43:47.295Z,5.69
2023-03-06T12:46:24.470Z,6.42
2023-03-06T12:49:05.069Z,6.76
2023-03-06T12:51:34.741Z,7.09
2023-03-06T12:54:04.479Z,7.23
2023-03-06T12:56:34.457Z,7.17
2023-03-06T12:59:03.829Z,7.07
2023-03-06T13:02:00.079Z,6.86
2023-03-06T13:04:35.589Z,6.83
2023-03-06T13:07:16.955Z,6.73
2023-03-06T13:10:07.588Z,6.54
2023-03-06T13:12:53.209Z,6.51
2023-03-06T13:15:47.073Z,6.34
2023-03-06T13:18:28.450Z,6.47
2023-03-06T13:20:58.181Z,6.59
2023-03-06T13:23:45.639Z,7.09
2023-03-06T13:26:27.115Z,7.46
2023-03-06T13:28:58.355Z,7.37
2023-03-06T13:31:36.632Z,7.42
2023-03-06T13:34:07.152Z,7.41
2023-03-06T13:36:39.704Z,7.12
2023-03-06T13:39:12.444Z,7.67
2023-03-06T13:41:44.897Z,7.72
2023-03-06T13:44:30.773Z,7.59
2023-03-06T13:47:08.428Z,7.26
2023-03-06T13:49:37.844Z,7.30
2023-03-06T13:52:25.076Z,7.53
2023-03-06T13:55:13.883Z,7.16
2023-03-06T13:57:46.256Z,7.24
2023-03-06T14:00:25.033Z,7.20
2023-03-06T14:03:29.331Z,6.81
2023-03-06T14:05:59.081Z,6.91
2023-03-06T14:08:32.872Z,6.92
2023-03-06T14:11:20.706Z,6.88
2023-03-06T14:13:57.974Z,6.59
2023-03-06T14:16:40.515Z,6.26
2023-03-06T14:19:01.450Z,6.21
2023-03-06T14:21:40.048Z,6.09
2023-03-06T14:24:17.891Z,6.14
2023-03-06T14:26:53.314Z,6.14
2023-03-06T14:29:25.452Z,6.29
2023-03-06T14:31:57.439Z,6.04
2023-03-06T14:34:32.067Z,5.99
2023-03-06T14:37:05.487Z,5.77
2023-03-06T14:39:38.151Z,5.68
2023-03-06T14:42:10.802Z,5.81
2023-03-06T14:44:40.041Z,5.76
2023-03-06T14:47:28.952Z,5.88
2023-03-06T14:50:21.536Z,5.89
2023-03-06T14:52:57.026Z,6.04
2023-03-06T14:55:28.730Z,5.90
2023-03-06T14:58:06.471Z,5.76
2023-03-06T15:00:39.264Z,5.53
2023-03-06T15:03:11.788Z,5.11
2023-03-06T15:05:40.356Z,4.95
2023-03-06T15:08:09.818Z,4.64
2023-03-06T15:10:39.266Z,4.43
2023-03-06T15:13:11.519Z,4.31
2023-03-06T15:15:40.770Z,4.29
2023-03-06T15:18:28.872Z,3.85
2023-03-06T15:21:18.640Z,3.86
2023-03-06T15:23:49.995Z,4.00
2023-03-06T15:26:34.989Z,4.01
2023-03-06T15:29:13.905Z,4.06
2023-03-06T15:31:47.282Z,4.06
2023-03-06T15:34:26.403Z,4.12
2023-03-06T15:36:57.717Z,4.19
2023-03-06T15:39:30.654Z,4.19
2023-03-06T15:42:06.019Z,4.22
2023-03-06T15:44:35.588Z,4.19
2023-03-06T15:47:09.022Z,4.19
2023-03-06T15:49:38.563Z,4.27
2023-03-06T15:52:08.362Z,4.32
2023-03-06T15:54:37.936Z,4.39
2023-03-06T15:57:08.789Z,4.44
2023-03-06T15:59:44.019Z,4.37
2023-03-06T16:02:18.704Z,4.19
2023-03-06T16:04:48.190Z,4.05
2023-03-06T16:07:17.938Z,3.96
2023-03-06T16:09:47.765Z,3.91
2023-03-06T16:12:19.458Z,3.89
2023-03-06T16:14:49.594Z,3.92
2023-03-06T16:17:19.433Z,3.94
2023-03-06T16:19:48.940Z,3.98
2023-03-06T16:22:18.812Z,3.98
2023-03-06T16:24:48.292Z,3.93
2023-03-06T16:27:20.037Z,3.92
2023-03-06T16:29:49.629Z,3.95
2023-03-06T16:32:19.239Z,4.00
2023-03-06T16:34:48.616Z,3.96
2023-03-06T16:37:18.062Z,3.89
2023-03-06T16:39:47.436Z,3.77
2023-03-06T16:42:17.705Z,3.66
2023-03-06T16:44:46.941Z,3.64
2023-03-06T16:47:16.250Z,3.62
2023-03-06T16:49:45.601Z,3.62
2023-03-06T16:52:15.355Z,3.67
2023-03-06T16:54:44.898Z,3.63
2023-03-06T16:57:15.955Z,3.67
2023-03-06T16:59:45.213Z,3.61
2023-03-06T17:02:14.631Z,3.63
2023-03-06T17:04:43.838Z,3.62
2023-03-06T17:07:13.452Z,3.62
2023-03-06T17:09:43.270Z,3.57
2023-03-06T17:12:12.860Z,3.52
2023-03-06T17:14:42.350Z,3.59
2023-03-06T17:17:11.863Z,3.54
2023-03-06T17:19:41.253Z,3.45
2023-03-06T17:22:10.642Z,3.40
2023-03-06T17:24:39.893Z,3.31
2023-03-06T17:27:09.478Z,3.24
2023-03-06T17:29:39.072Z,3.22
2023-03-06T17:32:08.726Z,3.16
2023-03-06T17:34:38.463Z,3.20
2023-03-06T17:37:08.353Z,3.11
2023-03-06T17:39:39.641Z,3.07
2023-03-06T17:42:09.333Z,3.03
2023-03-06T17:44:39.418Z,2.99
2023-03-06T17:47:08.895Z,2.95
2023-03-06T17:49:39.839Z,2.90
2023-03-06T17:52:09.392Z,2.82
2023-03-06T17:54:38.681Z,2.77
2023-03-06T17:57:07.933Z,2.76
2023-03-06T17:59:37.352Z,2.75
2023-03-06T18:02:07.051Z,2.67
2023-03-06T18:04:36.345Z,2.68
2023-03-06T18:07:05.999Z,2.63
2023-03-06T18:12:42.429Z,2.60
2023-03-06T18:15:12.313Z,2.58
2023-03-06T18:17:41.752Z,2.58
2023-03-06T18:20:12.117Z,2.59
2023-03-06T18:22:41.563Z,2.58
2023-03-06T18:25:11.303Z,2.61
2023-03-06T18:27:40.674Z,2.58
2023-03-06T18:30:11.138Z,2.59
2023-03-06T18:32:40.592Z,2.58
2023-03-06T18:35:10.589Z,2.56
2023-03-06T18:37:39.872Z,2.57
2023-03-06T18:40:10.481Z,2.51
2023-03-06T18:42:39.834Z,2.56
2023-03-06T18:45:09.949Z,2.52
2023-03-06T18:47:39.764Z,2.47
2023-03-06T18:50:11.156Z,2.46
2023-03-06T18:52:40.472Z,2.41
2023-03-06T18:55:10.909Z,2.42
2023-03-06T18:57:40.871Z,2.42
2023-03-06T19:00:12.663Z,2.41
2023-03-06T19:02:42.280Z,2.39
2023-03-06T19:05:11.929Z,2.42
2023-03-06T19:07:41.540Z,2.44
2023-03-06T19:10:13.335Z,2.42
2023-03-06T19:12:42.790Z,2.45
2023-03-06T19:15:12.287Z,2.43
2023-03-06T19:17:41.940Z,2.47
2023-03-06T19:20:12.670Z,2.48
2023-03-06T19:22:42.283Z,2.48
2023-03-06T19:25:11.946Z,2.53
2023-03-06T19:27:42.880Z,2.53
2023-03-06T19:30:13.546Z,2.52
2023-03-06T19:32:47.555Z,2.55
2023-03-06T19:35:17.110Z,2.55
2023-03-06T19:37:46.672Z,2.56
2023-03-06T19:40:16.740Z,2.64
2023-03-06T19:42:46.159Z,2.64
2023-03-06T19:45:15.954Z,2.62
2023-03-06T19:47:45.226Z,2.67
2023-03-06T19:50:14.587Z,2.67
2023-03-06T19:52:44.477Z,2.67
2023-03-06T19:55:13.786Z,2.67
2023-03-06T19:57:43.511Z,2.69
2023-03-06T20:00:14.308Z,2.73
2023-03-06T20:02:44.079Z,2.75
2023-03-06T20:05:13.515Z,2.77
2023-03-06T20:07:42.995Z,2.78
2023-03-06T20:10:12.814Z,2.85
2023-03-06T20:12:42.292Z,2.87
2023-03-06T20:15:12.460Z,2.91
2023-03-06T20:17:41.684Z,2.92
2023-03-06T20:20:12.076Z,2.99
2023-03-06T20:22:41.403Z,3.01
2023-03-06T20:25:11.281Z,3.05
2023-03-06T20:27:40.687Z,3.09
2023-03-06T20:30:11.049Z,3.18
2023-03-06T20:32:40.361Z,3.19
2023-03-06T20:35:09.968Z,3.23
2023-03-06T20:37:41.183Z,3.28
2023-03-06T20:40:11.791Z,3.31
2023-03-06T20:42:41.153Z,3.30
2023-03-06T20:45:11.022Z,3.29
2023-03-06T20:47:42.008Z,3.30
2023-03-06T20:50:12.164Z,3.32
2023-03-06T20:52:41.660Z,3.31
2023-03-06T20:55:11.270Z,3.32
2023-03-06T20:57:40.570Z,3.32
2023-03-06T21:00:11.382Z,3.29
2023-03-06T21:02:40.647Z,3.27
2023-03-06T21:05:10.622Z,3.25
2023-03-06T21:07:39.878Z,3.21
2023-03-06T21:10:10.619Z,3.13
2023-03-06T21:12:41.508Z,3.10
2023-03-06T21:15:12.987Z,3.05
2023-03-06T21:17:42.300Z,3.02
2023-03-06T21:20:12.509Z,2.98
2023-03-06T21:22:41.786Z,3.03
2023-03-06T21:25:13.137Z,3.03
2023-03-06T21:27:42.439Z,3.05
2023-03-06T21:30:13.163Z,3.02
2023-03-06T21:32:42.576Z,3.07
2023-03-06T21:35:12.214Z,3.05
2023-03-06T21:37:41.479Z,3.05
2023-03-06T21:40:11.913Z,3.07
2023-03-06T21:42:42.050Z,3.12
2023-03-06T21:45:12.429Z,3.10
2023-03-06T21:47:41.742Z,3.15
2023-03-06T21:50:12.275Z,3.19
2023-03-06T21:52:41.776Z,3.24
2023-03-06T21:55:11.485Z,3.25
2023-03-06T21:57:41.665Z,3.29
2023-03-06T22:00:13.271Z,3.33
2023-03-06T22:02:45.113Z,3.36
2023-03-06T22:05:17.014Z,3.32
2023-03-06T22:07:46.671Z,3.35
2023-03-06T22:10:18.840Z,3.33
2023-03-06T22:12:52.894Z,3.34
2023-03-06T22:15:24.786Z,3.36
2023-03-06T22:17:55.304Z,3.33
2023-03-06T22:20:30.267Z,3.34
2023-03-06T22:23:00.252Z,3.37
2023-03-06T22:25:31.813Z,3.40
2023-03-06T22:28:06.194Z,3.42
2023-03-06T22:30:35.511Z,3.43
2023-03-06T22:33:04.871Z,3.45
2023-03-06T22:35:34.317Z,3.46
2023-03-06T22:38:04.633Z,3.42
2023-03-06T22:40:34.494Z,3.43
2023-03-06T22:43:04.005Z,3.42
2023-03-06T22:45:35.255Z,3.40
2023-03-06T22:48:11.110Z,3.40
2023-03-06T22:50:36.821Z,3.42
2023-03-06T22:53:06.072Z,3.42
2023-03-06T22:55:38.054Z,3.43
2023-03-06T22:58:07.806Z,3.38
2023-03-06T23:00:37.058Z,3.36
2023-03-06T23:03:07.004Z,3.34
2023-03-06T23:05:37.929Z,3.30
2023-03-06T23:08:07.274Z,3.29
2023-03-06T23:10:40.213Z,3.29
2023-03-06T23:13:27.647Z,3.25
2023-03-06T23:16:15.049Z,3.28
2023-03-06T23:19:03.134Z,3.30
2023-03-06T23:21:50.362Z,3.26
2023-03-06T23:24:38.164Z,3.29
2023-03-06T23:27:07.559Z,3.28
2023-03-06T23:29:36.919Z,3.31
2023-03-06T23:32:07.459Z,3.30
2023-03-06T23:34:37.260Z,3.26
2023-03-06T23:37:07.348Z,3.24
2023-03-06T23:39:37.281Z,3.18
2023-03-06T23:42:06.942Z,3.17
2023-03-06T23:44:36.566Z,3.19
2023-03-06T23:47:05.911Z,3.16
2023-03-06T23:49:35.687Z,3.18
2023-03-06T23:52:05.054Z,3.17
2023-03-06T23:54:35.751Z,3.22
2023-03-06T23:57:05.163Z,3.28
2023-03-06T23:59:34.829Z,3.25
